Time;durP1;ratioP1;P1;durP2;ratioP2;P2;SDS_P1;SDS_P2;PMS_P1;PMS_P2;Temp;Humidity;BMP_temperature;BMP_pressure;BME280_temperature;BME280_humidity;BME280_pressure;Samples;Min_cycle;Max_cycle;Signal;HPM_P1;HPM_P2
2022/06/15 00:01:02;;;;;;;;;;;;;;;21.26;37.00;95482.50;2059172;28;1074;-57
2022/06/15 00:02:04;;;;;;;;;;;;;;;21.27;36.61;95478.78;2050935;28;1187;-57
2022/06/15 00:03:07;;;;;;;;;;;;;;;21.25;36.27;95478.97;2057882;28;1098;-60
2022/06/15 00:04:09;;;;;;;;;;;;;;;21.20;36.53;95474.25;2058219;28;1432;-58
2022/06/15 00:05:12;;;;;;;;;;;;;;;21.19;36.47;95472.59;2058869;28;1188;-59
2022/06/15 00:06:16;;;;;;;;;;;;;;;21.19;36.59;95477.13;2057470;28;1459;-60
2022/06/15 00:07:17;;;;;;;;;;;;;;;21.17;36.71;95472.00;2058995;28;1090;-58
2022/06/15 00:08:21;;;;;;;;;;;;;;;21.15;36.48;95470.53;2058850;28;1906;-59
2022/06/15 00:09:22;;;;;;;;;;;;;;;21.16;36.64;95470.31;2059091;28;1049;-58
2022/06/15 00:10:25;;;;;;;;;;;;;;;21.14;36.63;95467.03;2058740;28;1110;-59
2022/06/15 00:11:29;;;;;;;;;;;;;;;21.13;36.82;95469.91;2059108;28;1018;-58
2022/06/15 00:12:33;;;;;;;;;;;;;;;21.12;36.79;95471.75;2059108;28;1033;-60
2022/06/15 00:13:35;;;;;;;;;;;;;;;21.10;37.22;95468.44;2049757;28;1251;-59
2022/06/15 00:14:38;;;;;;;;;;;;;;;21.09;36.73;95474.00;2058958;28;1499;-59
2022/06/15 00:15:40;;;;;;;;;;;;;;;21.11;36.65;95466.59;2059151;28;1082;-58
2022/06/15 00:16:42;;;;;;;;;;;;;;;21.11;36.68;95469.28;2057539;28;1498;-58
2022/06/15 00:17:44;;;;;;;;;;;;;;;21.09;36.75;95469.50;2057896;28;1471;-59
2022/06/15 00:18:48;;;;;;;;;;;;;;;21.10;36.48;95467.63;2058802;28;1101;-60
2022/06/15 00:19:49;;;;;;;;;;;;;;;21.07;35.98;95471.53;2058942;28;1094;-59
2022/06/15 00:20:52;;;;;;;;;;;;;;;21.04;36.14;95466.59;2059129;28;1085;-58
2022/06/15 00:21:54;;;;;;;;;;;;;;;21.09;36.76;95474.84;2058134;28;1597;-59
2022/06/15 00:22:57;;;;;;;;;;;;;;;21.12;37.03;95466.41;2057817;28;1509;-60
2022/06/15 00:23:59;;;;;;;;;;;;;;;21.11;36.37;95463.94;2057192;28;1489;-58
2022/06/15 00:25:02;;;;;;;;;;;;;;;21.09;36.27;95464.16;2051357;28;1212;-57
2022/06/15 00:26:04;;;;;;;;;;;;;;;21.09;36.76;95464.16;2057820;28;1657;-58
2022/06/15 00:27:07;;;;;;;;;;;;;;;21.09;36.67;95460.66;2058900;28;1153;-59
2022/06/15 00:28:11;;;;;;;;;;;;;;;21.10;35.92;95457.75;2058801;28;1986;-58
2022/06/15 00:29:13;;;;;;;;;;;;;;;21.10;35.81;95460.44;2057846;28;1676;-58
2022/06/15 00:30:15;;;;;;;;;;;;;;;21.10;36.36;95457.75;2059093;28;1110;-59
2022/06/15 00:31:18;;;;;;;;;;;;;;;21.09;36.43;95456.13;2058049;28;1490;-55
2022/06/15 00:32:20;;;;;;;;;;;;;;;21.09;36.30;95455.31;2059036;28;1156;-59
2022/06/15 00:33:24;;;;;;;;;;;;;;;21.10;36.03;95457.75;2058149;28;1503;-59
2022/06/15 00:34:25;;;;;;;;;;;;;;;21.09;36.59;95461.47;2059056;28;1072;-58
2022/06/15 00:35:28;;;;;;;;;;;;;;;21.08;36.46;95462.47;2055202;28;1093;-55
2022/06/15 00:36:30;;;;;;;;;;;;;;;21.08;36.17;95459.81;2052281;28;1541;-60
2022/06/15 00:37:36;;;;;;;;;;;;;;;21.08;36.15;95459.00;2058901;28;1160;-58
2022/06/15 00:38:39;;;;;;;;;;;;;;;21.07;36.42;95462.69;2058861;28;1053;-56
2022/06/15 00:39:42;;;;;;;;;;;;;;;21.07;35.52;95460.84;2057989;28;1516;-58
2022/06/15 00:40:44;;;;;;;;;;;;;;;21.07;36.08;95458.19;2056978;28;1483;-57
2022/06/15 00:41:46;;;;;;;;;;;;;;;21.04;35.51;95453.25;2058999;28;1109;-58
2022/06/15 00:42:48;;;;;;;;;;;;;;;21.01;35.37;95459.00;2058216;28;1491;-58
2022/06/15 00:43:54;;;;;;;;;;;;;;;21.00;35.65;95458.19;2058823;28;1124;-58
2022/06/15 00:44:55;;;;;;;;;;;;;;;20.95;35.80;95455.28;2058370;28;1600;-59
2022/06/15 00:45:59;;;;;;;;;;;;;;;20.95;35.58;95459.81;2057670;28;1649;-56
2022/06/15 00:47:01;;;;;;;;;;;;;;;20.96;35.53;95459.59;2050649;28;1483;-58
2022/06/15 00:48:04;;;;;;;;;;;;;;;20.99;35.70;95461.84;2052623;28;1624;-59
2022/06/15 00:49:09;;;;;;;;;;;;;;;20.98;35.55;95459.41;2057920;28;1946;-60
2022/06/15 00:50:14;;;;;;;;;;;;;;;20.98;35.21;95462.91;2058890;28;1092;-60
2022/06/15 00:51:16;;;;;;;;;;;;;;;20.98;35.83;95464.75;2058273;28;1457;-59
2022/06/15 00:52:24;;;;;;;;;;;;;;;21.00;35.99;95473.38;2059005;28;1058;-60
2022/06/15 00:53:26;;;;;;;;;;;;;;;21.01;35.81;95461.66;2058863;28;1144;-58
2022/06/15 00:54:29;;;;;;;;;;;;;;;20.98;35.59;95470.09;2058145;28;1480;-58
2022/06/15 00:55:33;;;;;;;;;;;;;;;20.98;35.39;95467.41;2058583;28;1078;-57
2022/06/15 00:56:35;;;;;;;;;;;;;;;20.97;35.62;95468.44;2057471;28;1412;-57
2022/06/15 00:57:38;;;;;;;;;;;;;;;21.00;35.64;95473.38;2058166;28;1484;-58
2022/06/15 00:58:43;;;;;;;;;;;;;;;21.03;36.05;95472.97;2054132;28;1147;-59
2022/06/15 00:59:53;;;;;;;;;;;;;;;21.00;35.71;95478.72;2055013;28;1804;-60
2022/06/15 01:00:56;;;;;;;;;;;;;;;20.98;35.57;95483.44;2058198;28;1683;-60
2022/06/15 01:01:59;;;;;;;;;;;;;;;20.97;35.22;95479.09;2057773;28;1545;-56
2022/06/15 01:03:01;;;;;;;;;;;;;;;20.97;35.29;95479.09;2057705;28;1533;-60
2022/06/15 01:04:05;;;;;;;;;;;;;;;20.90;35.01;95473.75;2058876;28;1086;-59
2022/06/15 01:05:10;;;;;;;;;;;;;;;20.90;34.68;95479.09;2057098;28;1451;-60
2022/06/15 01:06:15;;;;;;;;;;;;;;;20.87;35.10;95484.03;2058826;28;1113;-60
2022/06/15 01:07:27;;;;;;;;;;;;;;;20.95;35.88;95487.34;2058836;28;966;-61
2022/06/15 01:08:33;;;;;;;;;;;;;;;20.96;35.46;95478.28;2050916;28;1972;-61
2022/06/15 01:09:39;;;;;;;;;;;;;;;20.93;35.33;95478.69;2051443;28;1495;-59
2022/06/15 01:10:47;;;;;;;;;;;;;;;20.93;35.09;95483.22;2053329;28;1442;-57
2022/06/15 01:12:00;;;;;;;;;;;;;;;20.93;35.27;95488.56;2056686;28;1616;-61
2022/06/15 01:13:12;;;;;;;;;;;;;;;21.00;35.27;95494.75;2058806;28;1106;-59
2022/06/15 01:14:30;;;;;;;;;;;;;;;20.99;36.09;95485.09;2058792;28;1073;-59
2022/06/15 01:15:37;;;;;;;;;;;;;;;20.98;35.54;95484.25;2057982;28;1476;-60
2022/06/15 01:16:44;;;;;;;;;;;;;;;20.98;35.81;95480.78;2057124;28;1558;-61
2022/06/15 01:17:53;;;;;;;;;;;;;;;20.97;35.56;95479.09;2058404;28;1112;-59
2022/06/15 01:19:02;;;;;;;;;;;;;;;20.95;35.70;95482.00;2056964;28;1476;-59
2022/06/15 01:20:13;;;;;;;;;;;;;;;20.99;35.59;95479.75;2057836;28;1528;-61
2022/06/15 01:21:20;;;;;;;;;;;;;;;21.00;35.92;95484.06;2053094;28;1454;-59
2022/06/15 01:22:32;;;;;;;;;;;;;;;20.98;35.65;95483.44;2054049;28;1733;-60
2022/06/15 01:23:59;;;;;;;;;;;;;;;20.96;35.48;95482.81;2058821;28;1052;-58
2022/06/15 01:25:12;;;;;;;;;;;;;;;20.98;35.16;95480.78;2058401;28;1022;-58
2022/06/15 01:26:21;;;;;;;;;;;;;;;20.99;35.45;95474.41;2057155;28;1587;-56
2022/06/15 01:27:54;;;;;;;;;;;;;;;20.98;35.02;95483.44;2058161;28;1492;-57
2022/06/15 01:29:01;;;;;;;;;;;;;;;20.97;35.15;95485.31;2026065;29;1918;-60
2022/06/15 01:30:15;;;;;;;;;;;;;;;20.95;34.60;95482.00;2025291;29;1505;-59
2022/06/15 01:31:23;;;;;;;;;;;;;;;20.94;34.66;95474.19;2036376;28;2012;-57
2022/06/15 01:32:31;;;;;;;;;;;;;;;20.94;34.74;95476.84;2053005;28;1134;-58
2022/06/15 01:33:39;;;;;;;;;;;;;;;20.93;34.47;95477.88;2053064;28;1601;-59
2022/06/15 01:34:46;;;;;;;;;;;;;;;20.90;34.91;95475.63;2057981;28;1519;-59
2022/06/15 01:35:54;;;;;;;;;;;;;;;20.92;35.40;95479.75;2058579;28;1133;-59
2022/06/15 01:37:02;;;;;;;;;;;;;;;20.92;34.67;95485.09;2057865;28;1472;-58
2022/06/15 01:38:19;;;;;;;;;;;;;;;20.90;34.86;95481.78;2057911;28;1883;-59
2022/06/15 01:39:24;;;;;;;;;;;;;;;20.89;35.22;95476.66;2058260;28;1114;-59
2022/06/15 01:40:32;;;;;;;;;;;;;;;20.88;34.91;95485.66;2057618;28;1488;-55
2022/06/15 01:41:36;;;;;;;;;;;;;;;20.88;34.69;95483.00;2050708;28;1053;-59
2022/06/15 01:42:41;;;;;;;;;;;;;;;20.90;34.72;95478.28;2055739;28;1511;-57
2022/06/15 01:43:48;;;;;;;;;;;;;;;20.87;34.27;95478.69;2053110;28;1464;-58
2022/06/15 01:44:52;;;;;;;;;;;;;;;20.87;34.35;95482.19;2052943;28;1603;-58
2022/06/15 01:45:56;;;;;;;;;;;;;;;20.89;34.58;95487.34;2057773;28;1626;-58
2022/06/15 01:47:01;;;;;;;;;;;;;;;20.86;34.52;95490.38;2056983;28;1413;-58
2022/06/15 01:48:05;;;;;;;;;;;;;;;20.84;34.32;95489.78;2057692;28;1583;-58
2022/06/15 01:49:11;;;;;;;;;;;;;;;20.80;34.10;95494.72;2050384;29;1972;-58
2022/06/15 01:50:15;;;;;;;;;;;;;;;20.81;34.21;95490.19;2050754;28;1083;-59
2022/06/15 01:51:21;;;;;;;;;;;;;;;20.79;34.52;95487.72;2056805;28;1587;-59
2022/06/15 01:52:25;;;;;;;;;;;;;;;20.82;34.72;95489.16;2058436;28;1166;-59
2022/06/15 01:53:31;;;;;;;;;;;;;;;20.78;34.24;95481.53;2057998;28;1189;-59
2022/06/15 01:54:36;;;;;;;;;;;;;;;20.78;34.71;95486.88;2057340;28;1474;-58
2022/06/15 01:55:41;;;;;;;;;;;;;;;20.79;34.65;95488.53;2049532;28;1392;-58
2022/06/15 01:56:44;;;;;;;;;;;;;;;20.76;33.96;95491.59;2055857;28;1492;-59
2022/06/15 01:57:50;;;;;;;;;;;;;;;20.76;34.94;95486.25;2058138;28;1546;-56
2022/06/15 01:58:56;;;;;;;;;;;;;;;20.77;34.72;95485.25;2058403;28;1101;-57
2022/06/15 02:00:02;;;;;;;;;;;;;;;20.73;35.35;95488.50;2057606;28;1535;-58
2022/06/15 02:01:07;;;;;;;;;;;;;;;20.71;35.43;95486.03;2050596;28;1027;-57
2022/06/15 02:02:14;;;;;;;;;;;;;;;20.74;35.62;95484.81;2055217;28;1486;-54
2022/06/15 02:03:20;;;;;;;;;;;;;;;20.74;35.71;95484.81;2058465;28;1122;-54
2022/06/15 02:04:25;;;;;;;;;;;;;;;20.75;35.63;95481.94;2058539;28;1142;-54
2022/06/15 02:05:32;;;;;;;;;;;;;;;20.73;34.75;95481.31;2056768;28;1453;-56
2022/06/15 02:06:46;;;;;;;;;;;;;;;20.71;34.90;95480.69;2052423;28;1527;-55
2022/06/15 02:07:53;;;;;;;;;;;;;;;20.69;34.60;95485.44;2049565;28;1639;-54
2022/06/15 02:08:59;;;;;;;;;;;;;;;20.68;34.47;95486.44;2058235;28;1011;-55
2022/06/15 02:10:06;;;;;;;;;;;;;;;20.71;34.92;95486.03;2050210;29;1911;-54
2022/06/15 02:11:10;;;;;;;;;;;;;;;20.73;34.78;95484.00;2050511;28;1121;-53
2022/06/15 02:12:13;;;;;;;;;;;;;;;20.73;34.69;95500.00;2050447;28;1172;-54
2022/06/15 02:13:19;;;;;;;;;;;;;;;20.69;34.56;95488.09;2050459;28;992;-55
2022/06/15 02:14:24;;;;;;;;;;;;;;;20.70;34.69;95491.59;2056382;28;1504;-53
2022/06/15 02:15:28;;;;;;;;;;;;;;;20.68;34.43;95488.28;2058087;28;1138;-53
2022/06/15 02:16:34;;;;;;;;;;;;;;;20.67;34.80;95487.47;2056803;28;1745;-55
2022/06/15 02:17:38;;;;;;;;;;;;;;;20.66;34.60;95493.00;2055529;28;1046;-55
2022/06/15 02:18:46;;;;;;;;;;;;;;;20.66;35.09;95491.19;2051381;28;1541;-53
2022/06/15 02:19:49;;;;;;;;;;;;;;;20.69;34.83;95501.44;2057697;28;1534;-55
2022/06/15 02:20:55;;;;;;;;;;;;;;;20.65;34.26;95492.19;2058191;28;1181;-55
2022/06/15 02:21:59;;;;;;;;;;;;;;;20.64;34.57;95495.06;2058151;28;1110;-56
2022/06/15 02:23:03;;;;;;;;;;;;;;;20.61;34.85;95492.81;2058299;28;1040;-56
2022/06/15 02:24:06;;;;;;;;;;;;;;;20.65;34.39;95497.53;2057866;28;1076;-58
2022/06/15 02:25:10;;;;;;;;;;;;;;;20.64;35.08;95495.06;2058275;28;1037;-54
2022/06/15 02:26:13;;;;;;;;;;;;;;;20.65;35.13;95497.53;2056309;28;1545;-58
2022/06/15 02:27:17;;;;;;;;;;;;;;;20.65;35.29;95494.84;2056214;28;1627;-55
2022/06/15 02:28:22;;;;;;;;;;;;;;;20.67;35.22;95494.66;2058085;28;1045;-57
2022/06/15 02:29:27;;;;;;;;;;;;;;;20.67;34.81;95494.66;2053319;28;1088;-54
2022/06/15 02:30:30;;;;;;;;;;;;;;;20.65;34.38;95494.03;2052639;28;1989;-54
2022/06/15 02:31:34;;;;;;;;;;;;;;;20.65;34.83;95486.84;2056841;28;1586;-51
2022/06/15 02:32:36;;;;;;;;;;;;;;;20.66;34.68;95490.31;2058165;28;1130;-49
2022/06/15 02:33:46;;;;;;;;;;;;;;;20.65;34.68;95494.84;2058244;28;1057;-51
2022/06/15 02:34:47;;;;;;;;;;;;;;;20.59;34.65;95484.16;2057519;28;1474;-51
2022/06/15 02:35:50;;;;;;;;;;;;;;;20.61;35.44;95482.13;2058120;28;1057;-51
2022/06/15 02:36:52;;;;;;;;;;;;;;;20.59;34.78;95484.97;2056267;28;1725;-50
2022/06/15 02:37:55;;;;;;;;;;;;;;;20.55;34.75;95479.22;2057545;28;1514;-53
2022/06/15 02:38:57;;;;;;;;;;;;;;;20.56;34.52;95488.03;2057363;28;1476;-57
2022/06/15 02:39:59;;;;;;;;;;;;;;;20.58;34.89;95480.66;2058068;28;1024;-52
2022/06/15 02:41:02;;;;;;;;;;;;;;;20.61;34.98;95474.94;2047914;28;1800;-53
2022/06/15 02:42:21;;;;;;;;;;;;;;;20.64;34.95;95477.19;2057107;28;1466;-53
2022/06/15 02:43:25;;;;;;;;;;;;;;;20.68;35.04;95480.28;2057983;28;1141;-50
2022/06/15 02:44:30;;;;;;;;;;;;;;;20.67;34.57;95478.63;2057989;28;1118;-56
2022/06/15 02:45:34;;;;;;;;;;;;;;;20.66;34.61;95479.66;2057475;28;1678;-54
2022/06/15 02:46:41;;;;;;;;;;;;;;;20.66;34.70;95477.81;2056505;28;1426;-56
2022/06/15 02:47:43;;;;;;;;;;;;;;;20.66;34.78;95488.50;2056886;28;1545;-56
2022/06/15 02:48:46;;;;;;;;;;;;;;;20.65;34.66;95486.84;2057515;28;1640;-56
2022/06/15 02:49:51;;;;;;;;;;;;;;;20.65;35.01;95484.16;2057361;28;1600;-55
2022/06/15 02:50:55;;;;;;;;;;;;;;;20.65;35.11;95484.16;2057283;28;1903;-58
2022/06/15 02:51:59;;;;;;;;;;;;;;;20.64;35.01;95485.22;2045271;28;1579;-60
2022/06/15 02:53:06;;;;;;;;;;;;;;;20.67;34.85;95481.31;2049841;28;1502;-57
2022/06/15 02:54:16;;;;;;;;;;;;;;;20.68;35.18;95481.09;2057810;28;1461;-57
2022/06/15 02:55:20;;;;;;;;;;;;;;;20.65;34.61;95486.03;2058052;28;1098;-56
2022/06/15 02:56:23;;;;;;;;;;;;;;;20.65;34.85;95486.84;2049882;29;1340;-54
2022/06/15 02:57:26;;;;;;;;;;;;;;;20.65;34.29;95491.38;2053858;28;1551;-55
2022/06/15 02:58:30;;;;;;;;;;;;;;;20.62;34.08;95484.56;2056003;28;1721;-53
2022/06/15 02:59:32;;;;;;;;;;;;;;;20.65;34.47;95486.84;2057815;28;1161;-54
2022/06/15 03:00:34;;;;;;;;;;;;;;;20.64;34.15;95490.53;2056384;28;1696;-57
2022/06/15 03:01:39;;;;;;;;;;;;;;;20.67;34.41;95489.31;2055776;28;1524;-55
2022/06/15 03:02:41;;;;;;;;;;;;;;;20.65;34.29;95492.19;2049844;29;980;-50
2022/06/15 03:03:44;;;;;;;;;;;;;;;20.70;34.38;95488.91;2046982;28;1486;-59
2022/06/15 03:04:46;;;;;;;;;;;;;;;20.91;34.26;95485.25;2057197;28;1474;-55
2022/06/15 03:05:49;;;;;;;;;;;;;;;20.91;34.44;95486.09;2057721;28;1618;-57
2022/06/15 03:06:51;;;;;;;;;;;;;;;20.93;34.01;95488.56;2057640;28;1589;-50
2022/06/15 03:07:54;;;;;;;;;;;;;;;20.99;34.32;95487.75;2056039;28;1467;-53
2022/06/15 03:08:56;;;;;;;;;;;;;;;20.94;34.18;95491.06;2057534;28;1716;-51
2022/06/15 03:09:59;;;;;;;;;;;;;;;21.01;34.41;95493.72;2057922;28;1117;-52
2022/06/15 03:11:00;;;;;;;;;;;;;;;20.96;34.13;95485.50;2057111;28;1977;-54
2022/06/15 03:12:04;;;;;;;;;;;;;;;20.97;34.29;95485.31;2058058;28;1053;-53
2022/06/15 03:13:06;;;;;;;;;;;;;;;20.93;34.58;95489.38;2058025;28;1019;-53
2022/06/15 03:14:09;;;;;;;;;;;;;;;20.97;34.64;95489.78;2056448;28;1495;-52
2022/06/15 03:15:11;;;;;;;;;;;;;;;20.93;34.74;95492.06;2050094;28;1551;-57
2022/06/15 03:16:14;;;;;;;;;;;;;;;20.93;34.68;95491.25;2057672;28;1145;-54
2022/06/15 03:17:17;;;;;;;;;;;;;;;20.86;34.56;95491.22;2057913;28;1043;-57
2022/06/15 03:18:22;;;;;;;;;;;;;;;20.85;34.60;95494.09;2056629;28;1480;-56
2022/06/15 03:19:24;;;;;;;;;;;;;;;20.87;34.63;95494.72;2057240;28;1500;-57
2022/06/15 03:20:27;;;;;;;;;;;;;;;20.85;34.73;95494.09;2057559;28;1007;-57
2022/06/15 03:21:29;;;;;;;;;;;;;;;20.80;34.07;95489.38;2056573;28;1538;-57
2022/06/15 03:22:33;;;;;;;;;;;;;;;20.74;34.17;95495.50;2056261;28;1513;-57
2022/06/15 03:23:35;;;;;;;;;;;;;;;20.70;34.37;95494.25;2055042;28;1484;-55
2022/06/15 03:24:37;;;;;;;;;;;;;;;20.65;34.24;95492.19;2056911;28;1429;-56
2022/06/15 03:25:39;;;;;;;;;;;;;;;20.66;34.85;95499.19;2053408;28;1037;-54
2022/06/15 03:26:42;;;;;;;;;;;;;;;20.65;35.21;95497.53;2052903;28;1321;-56
2022/06/15 03:27:44;;;;;;;;;;;;;;;20.65;35.43;95500.19;2056106;28;1494;-57
2022/06/15 03:28:47;;;;;;;;;;;;;;;20.68;35.11;95494.44;2056636;28;1508;-56
2022/06/15 03:29:50;;;;;;;;;;;;;;;20.62;34.51;95503.25;2057312;28;1667;-55
2022/06/15 03:30:53;;;;;;;;;;;;;;;20.56;34.49;95498.72;2057266;28;1907;-55
2022/06/15 03:31:54;;;;;;;;;;;;;;;20.56;34.71;95501.41;2057075;28;1684;-56
2022/06/15 03:32:59;;;;;;;;;;;;;;;20.58;34.70;95499.34;2056101;28;1496;-54
2022/06/15 03:34:07;;;;;;;;;;;;;;;20.58;34.70;95499.34;2057813;28;1129;-55
2022/06/15 03:35:10;;;;;;;;;;;;;;;20.56;34.19;95509.41;2050921;28;1502;-55
2022/06/15 03:36:12;;;;;;;;;;;;;;;20.54;34.32;95498.94;2049960;28;1061;-56
2022/06/15 03:37:15;;;;;;;;;;;;;;;20.59;34.61;95502.84;2045093;28;1177;-56
2022/06/15 03:38:16;;;;;;;;;;;;;;;20.70;35.13;95505.75;2051726;28;1573;-56
2022/06/15 03:39:19;;;;;;;;;;;;;;;20.76;35.75;95504.94;2057223;28;1549;-55
2022/06/15 03:40:22;;;;;;;;;;;;;;;20.77;36.09;95506.63;2057868;28;1173;-58
2022/06/15 03:41:24;;;;;;;;;;;;;;;20.87;36.29;95500.06;2057799;28;1093;-55
2022/06/15 03:42:27;;;;;;;;;;;;;;;20.75;37.61;95503.31;2057878;28;1056;-55
2022/06/15 03:43:29;;;;;;;;;;;;;;;20.80;37.53;95508.06;2055427;28;1456;-57
2022/06/15 03:44:31;;;;;;;;;;;;;;;21.10;36.82;95515.72;2057714;28;1134;-55
2022/06/15 03:45:33;;;;;;;;;;;;;;;21.06;37.61;95509.97;2056516;28;1508;-53
2022/06/15 03:46:36;;;;;;;;;;;;;;;21.13;37.64;95516.16;2056929;28;1456;-49
2022/06/15 03:47:38;;;;;;;;;;;;;;;21.02;38.46;95520.22;2057860;28;1021;-54
2022/06/15 03:48:43;;;;;;;;;;;;;;;20.93;39.85;95516.09;2051182;28;1528;-48
2022/06/15 03:49:45;;;;;;;;;;;;;;;20.82;40.47;95518.53;2053007;28;1676;-51
2022/06/15 03:50:47;;;;;;;;;;;;;;;20.77;40.54;95516.44;2057737;28;835;-53
2022/06/15 03:51:49;;;;;;;;;;;;;;;20.71;40.74;95522.59;2057553;28;1973;-53
2022/06/15 03:52:52;;;;;;;;;;;;;;;20.72;40.59;95518.94;2057617;28;1089;-52
2022/06/15 03:53:59;;;;;;;;;;;;;;;20.64;41.01;95525.25;2056534;28;1479;-52
2022/06/15 03:55:02;;;;;;;;;;;;;;;20.61;41.01;95520.31;2054128;28;1697;-49
2022/06/15 03:56:04;;;;;;;;;;;;;;;20.66;40.88;95520.53;2056651;28;1503;-52
2022/06/15 03:57:07;;;;;;;;;;;;;;;20.65;41.05;95529.56;2056912;28;1521;-54
2022/06/15 03:58:10;;;;;;;;;;;;;;;20.65;41.27;95518.06;2055878;28;1459;-52
2022/06/15 03:59:13;;;;;;;;;;;;;;;20.71;40.93;95520.75;2049678;28;1545;-52
2022/06/15 04:00:16;;;;;;;;;;;;;;;20.70;40.74;95521.78;2048688;28;1734;-60
2022/06/15 04:01:19;;;;;;;;;;;;;;;20.75;41.05;95522.00;2055125;28;1531;-58
2022/06/15 04:02:21;;;;;;;;;;;;;;;20.63;41.41;95528.97;2051507;28;1505;-59
2022/06/15 04:03:23;;;;;;;;;;;;;;;20.57;41.71;95521.72;2054377;28;1711;-52
2022/06/15 04:04:27;;;;;;;;;;;;;;;20.66;41.93;95530.38;2055070;28;1519;-57
2022/06/15 04:05:31;;;;;;;;;;;;;;;20.68;41.67;95528.34;2057287;28;1114;-64
2022/06/15 04:06:33;;;;;;;;;;;;;;;20.71;41.71;95523.41;2056372;28;1576;-54
2022/06/15 04:08:56;;;;;;;;;;;;;;;20.78;41.82;95523.47;2055504;28;1462;-55
2022/06/15 04:09:58;;;;;;;;;;;;;;;20.89;41.35;95520.22;2056696;28;1015;-51
2022/06/15 04:11:09;;;;;;;;;;;;;;;21.10;40.84;95526.41;2049655;28;1911;-56
2022/06/15 04:12:11;;;;;;;;;;;;;;;21.08;41.26;95523.13;2049567;28;1944;-54
2022/06/15 04:13:14;;;;;;;;;;;;;;;20.93;41.22;95521.44;2048679;28;1488;-55
2022/06/15 04:14:16;;;;;;;;;;;;;;;20.86;41.47;95525.97;2055812;28;1757;-55
2022/06/15 04:15:19;;;;;;;;;;;;;;;20.87;42.46;95526.78;2056972;28;1718;-55
2022/06/15 04:16:20;;;;;;;;;;;;;;;20.83;41.42;95525.50;2056748;28;1483;-54
2022/06/15 04:17:23;;;;;;;;;;;;;;;20.73;41.66;95525.91;2057515;28;1148;-49
2022/06/15 04:18:25;;;;;;;;;;;;;;;20.79;41.51;95525.09;2056262;28;1473;-55
2022/06/15 04:19:32;;;;;;;;;;;;;;;20.74;41.55;95527.53;2057747;28;1088;-55
2022/06/15 04:20:35;;;;;;;;;;;;;;;20.75;41.65;95529.22;2049646;28;1094;-55
2022/06/15 04:21:38;;;;;;;;;;;;;;;20.68;42.08;95525.66;2049428;28;1007;-57
2022/06/15 04:22:40;;;;;;;;;;;;;;;20.70;42.44;95528.97;2044545;28;1093;-56
2022/06/15 04:23:43;;;;;;;;;;;;;;;20.71;41.94;95522.59;2044896;28;2111;-57
2022/06/15 04:24:45;;;;;;;;;;;;;;;20.71;41.63;95526.09;2049843;28;1037;-54
2022/06/15 04:25:51;;;;;;;;;;;;;;;20.72;41.69;95524.25;2049796;28;1105;-55
2022/06/15 04:26:53;;;;;;;;;;;;;;;20.71;41.91;95526.09;2049769;28;1113;-55
2022/06/15 04:27:55;;;;;;;;;;;;;;;20.69;41.63;95530.00;2049657;28;1133;-55
2022/06/15 04:28:58;;;;;;;;;;;;;;;20.67;41.67;95526.72;2049362;28;1106;-58
2022/06/15 04:30:00;;;;;;;;;;;;;;;20.65;41.88;95529.56;2048564;28;974;-54
2022/06/15 04:31:03;;;;;;;;;;;;;;;20.62;42.06;95529.97;2048660;28;1149;-55
2022/06/15 04:32:05;;;;;;;;;;;;;;;20.54;41.76;95527.47;2048799;28;1915;-56
2022/06/15 04:33:10;;;;;;;;;;;;;;;20.54;41.84;95538.13;2048770;28;1085;-55
2022/06/15 04:34:13;;;;;;;;;;;;;;;20.46;41.61;95531.13;2044031;28;1337;-58
2022/06/15 04:35:17;;;;;;;;;;;;;;;20.53;41.99;95531.16;2044459;28;1729;-58
2022/06/15 04:36:19;;;;;;;;;;;;;;;20.58;42.08;95539.41;2048878;28;1061;-57
2022/06/15 04:37:22;;;;;;;;;;;;;;;20.53;41.97;95533.84;2048729;28;1094;-55
2022/06/15 04:38:24;;;;;;;;;;;;;;;20.51;42.01;95546.53;2050265;28;1077;-57
2022/06/15 04:39:27;;;;;;;;;;;;;;;20.56;42.28;95544.94;2050264;28;1102;-58
2022/06/15 04:40:30;;;;;;;;;;;;;;;20.59;42.15;95540.22;2050260;28;1094;-56
2022/06/15 04:41:35;;;;;;;;;;;;;;;20.58;42.11;95534.06;2050429;28;1095;-57
2022/06/15 04:42:37;;;;;;;;;;;;;;;20.57;42.48;95540.41;2050103;28;1106;-58
2022/06/15 04:43:40;;;;;;;;;;;;;;;20.55;42.29;95534.47;2050633;28;1024;-55
2022/06/15 04:44:42;;;;;;;;;;;;;;;20.49;42.55;95535.25;2050598;28;1064;-54
2022/06/15 04:45:45;;;;;;;;;;;;;;;20.50;42.66;95536.91;2043143;28;1522;-55
2022/06/15 04:46:47;;;;;;;;;;;;;;;20.51;42.33;95541.22;2050425;28;1193;-54
2022/06/15 04:47:49;;;;;;;;;;;;;;;20.52;42.12;95538.34;2051078;28;1041;-56
2022/06/15 04:48:51;;;;;;;;;;;;;;;20.55;42.61;95542.47;2050908;28;1287;-55
2022/06/15 04:49:54;;;;;;;;;;;;;;;20.54;42.41;95546.16;2051067;28;1049;-54
2022/06/15 04:51:09;;;;;;;;;;;;;;;20.46;42.59;95540.97;2050854;29;1062;-56
2022/06/15 04:52:10;;;;;;;;;;;;;;;20.48;42.98;95545.09;2050569;28;1907;-54
2022/06/15 04:53:13;;;;;;;;;;;;;;;20.54;42.94;95539.00;2050915;28;1065;-55
2022/06/15 04:54:15;;;;;;;;;;;;;;;20.57;43.08;95543.06;2058736;28;1206;-56
2022/06/15 04:55:19;;;;;;;;;;;;;;;20.56;43.11;95541.44;2058827;28;1113;-55
2022/06/15 04:56:22;;;;;;;;;;;;;;;20.54;43.63;95535.47;2056733;28;1414;-56
2022/06/15 04:57:24;;;;;;;;;;;;;;;20.56;43.41;95547.59;2052618;28;1404;-54
2022/06/15 04:58:27;;;;;;;;;;;;;;;20.58;43.76;95547.41;2058613;28;1337;-55
2022/06/15 04:59:29;;;;;;;;;;;;;;;20.62;43.47;95542.50;2058486;28;1037;-52
2022/06/15 05:00:34;;;;;;;;;;;;;;;20.58;43.20;95550.09;2058486;28;1057;-54
2022/06/15 05:01:36;;;;;;;;;;;;;;;20.56;42.94;95549.44;2058621;28;1113;-54
2022/06/15 05:02:39;;;;;;;;;;;;;;;20.58;42.75;95544.75;2058540;28;1094;-56
2022/06/15 05:03:42;;;;;;;;;;;;;;;20.56;43.06;95544.09;2058382;28;1058;-54
2022/06/15 05:04:44;;;;;;;;;;;;;;;20.62;43.06;95550.50;2058556;28;1153;-56
2022/06/15 05:05:47;;;;;;;;;;;;;;;20.57;43.08;95545.75;2058715;28;1021;-57
2022/06/15 05:06:50;;;;;;;;;;;;;;;20.50;42.63;95551.06;2058379;28;1122;-55
2022/06/15 05:07:53;;;;;;;;;;;;;;;20.51;42.95;95549.22;2054296;28;1026;-57
2022/06/15 05:08:55;;;;;;;;;;;;;;;20.55;42.18;95542.47;2053756;28;1688;-55
2022/06/15 05:09:58;;;;;;;;;;;;;;;20.57;41.98;95551.09;2058691;28;1093;-56
2022/06/15 05:11:00;;;;;;;;;;;;;;;20.58;42.31;95550.09;2058785;28;1463;-56
2022/06/15 05:12:04;;;;;;;;;;;;;;;20.54;42.43;95549.66;2058712;28;1061;-56
2022/06/15 05:13:07;;;;;;;;;;;;;;;20.56;42.43;95542.25;2058552;28;1018;-57
2022/06/15 05:14:10;;;;;;;;;;;;;;;20.58;41.99;95550.09;2058281;28;1025;-55
2022/06/15 05:15:13;;;;;;;;;;;;;;;20.61;41.99;95549.69;2058541;28;1080;-55
2022/06/15 05:16:16;;;;;;;;;;;;;;;20.58;41.72;95549.28;2058655;28;1117;-55
2022/06/15 05:17:18;;;;;;;;;;;;;;;20.63;41.30;95552.13;2058687;28;1101;-57
2022/06/15 05:18:22;;;;;;;;;;;;;;;20.62;41.63;95556.66;2058649;28;1097;-55
2022/06/15 05:19:23;;;;;;;;;;;;;;;20.63;41.76;95560.16;2053960;28;1113;-54
2022/06/15 05:20:26;;;;;;;;;;;;;;;20.60;41.55;95553.38;2053711;28;1620;-55
2022/06/15 05:21:28;;;;;;;;;;;;;;;20.62;41.39;95556.66;2058359;28;1041;-53
2022/06/15 05:22:32;;;;;;;;;;;;;;;20.63;41.16;95554.81;2058701;28;1011;-54
2022/06/15 05:23:34;;;;;;;;;;;;;;;20.65;41.08;95548.25;2058400;28;1137;-53
2022/06/15 05:24:37;;;;;;;;;;;;;;;20.65;40.60;95550.94;2058698;28;1226;-55
2022/06/15 05:25:39;;;;;;;;;;;;;;;20.67;41.27;95554.22;2058574;28;1153;-56
2022/06/15 05:26:41;;;;;;;;;;;;;;;20.65;40.52;95556.25;2058533;28;1086;-56
2022/06/15 05:27:44;;;;;;;;;;;;;;;20.71;40.55;95554.66;2058648;28;1081;-56
2022/06/15 05:28:47;;;;;;;;;;;;;;;20.71;40.27;95563.47;2058479;28;1045;-55
2022/06/15 05:29:49;;;;;;;;;;;;;;;20.76;40.13;95562.88;2058624;28;1041;-56
2022/06/15 05:30:52;;;;;;;;;;;;;;;20.79;40.84;95557.97;2053971;28;1103;-56
2022/06/15 05:31:54;;;;;;;;;;;;;;;20.81;40.56;95564.97;2054055;28;2064;-56
2022/06/15 05:32:56;;;;;;;;;;;;;;;20.76;40.67;95566.38;2058496;28;1992;-55
2022/06/15 05:33:59;;;;;;;;;;;;;;;20.78;40.45;95561.66;2058559;28;1102;-54
2022/06/15 05:35:02;;;;;;;;;;;;;;;20.82;40.47;95561.28;2058518;28;1086;-56
2022/06/15 05:36:06;;;;;;;;;;;;;;;20.84;40.21;95564.56;2058244;28;1121;-56
2022/06/15 05:37:09;;;;;;;;;;;;;;;20.87;40.94;95559.66;2058642;28;1093;-56
2022/06/15 05:38:13;;;;;;;;;;;;;;;20.89;40.94;95556.78;2058397;28;1105;-56
2022/06/15 05:39:16;;;;;;;;;;;;;;;20.91;40.55;95558.22;2058662;28;1030;-54
2022/06/15 05:40:18;;;;;;;;;;;;;;;20.93;40.59;95566.84;2058433;28;971;-57